createdAt,value
2022-11-06T00:01:10.115Z,12.37
2022-11-06T00:03:36.873Z,11.70
2022-11-06T00:06:30.866Z,12.90
2022-11-06T00:09:00.056Z,13.00
2022-11-06T00:11:26.747Z,12.20
2022-11-06T00:13:53.493Z,10.27
2022-11-06T00:16:20.814Z,11.20
2022-11-06T00:18:48.118Z,12.73
2022-11-06T00:21:21.423Z,11.43
2022-11-06T00:23:48.104Z,12.30
2022-11-06T00:26:20.494Z,10.80
2022-11-06T00:28:48.039Z,10.43
2022-11-06T00:31:17.431Z,11.80
2022-11-06T00:33:44.794Z,12.30
2022-11-06T00:36:14.266Z,11.43
2022-11-06T00:38:40.915Z,11.00
2022-11-06T00:41:13.554Z,10.90
2022-11-06T00:43:40.639Z,10.27
2022-11-06T00:46:12.010Z,10.97
2022-11-06T00:48:39.774Z,9.67
2022-11-06T00:51:12.331Z,9.87
2022-11-06T00:53:39.810Z,9.97
2022-11-06T00:56:07.740Z,10.17
2022-11-06T00:58:34.889Z,9.73
2022-11-06T01:01:07.571Z,10.20
2022-11-06T01:03:34.216Z,10.20
2022-11-06T01:06:24.616Z,10.30
2022-11-06T01:08:52.638Z,10.53
2022-11-06T01:11:25.297Z,8.67
2022-11-06T01:13:54.065Z,9.73
2022-11-06T01:16:21.805Z,9.80
2022-11-06T01:18:48.713Z,10.43
2022-11-06T01:21:21.377Z,9.70
2022-11-06T01:23:53.379Z,10.13
2022-11-06T01:26:36.842Z,9.50
2022-11-06T01:29:06.780Z,10.80
2022-11-06T01:31:34.962Z,10.20
2022-11-06T01:34:02.723Z,11.30
2022-11-06T01:36:29.925Z,10.40
2022-11-06T01:38:59.522Z,8.90
2022-11-06T01:41:35.617Z,10.40
2022-11-06T01:44:43.509Z,9.40
2022-11-06T01:47:28.371Z,9.60
2022-11-06T01:49:57.919Z,10.07
2022-11-06T01:52:26.452Z,8.70
2022-11-06T01:54:57.078Z,8.40
2022-11-06T01:57:24.481Z,9.03
2022-11-06T01:59:53.213Z,9.80
2022-11-06T02:02:20.310Z,9.77
2022-11-06T02:04:48.775Z,8.47
2022-11-06T02:07:16.757Z,8.70
2022-11-06T02:09:43.496Z,8.97
2022-11-06T02:12:22.996Z,8.73
2022-11-06T02:15:07.910Z,8.63
2022-11-06T02:17:46.962Z,8.50
2022-11-06T02:20:27.795Z,9.07
2022-11-06T02:22:54.438Z,8.07
2022-11-06T02:25:36.386Z,8.67
2022-11-06T02:28:26.370Z,8.23
2022-11-06T02:30:55.281Z,9.13
2022-11-06T02:33:34.806Z,8.77
2022-11-06T02:36:17.269Z,9.30
2022-11-06T02:38:53.487Z,9.07
2022-11-06T02:41:24.054Z,8.77
2022-11-06T02:43:54.964Z,8.67
2022-11-06T02:46:56.341Z,7.77
2022-11-06T02:49:34.435Z,8.30
2022-11-06T02:52:08.657Z,7.30
2022-11-06T02:54:38.926Z,8.63
2022-11-06T02:57:09.541Z,10.40
2022-11-06T02:59:46.354Z,8.83
2022-11-06T03:02:26.231Z,7.87
2022-11-06T03:05:01.648Z,8.20
2022-11-06T03:08:03.778Z,7.90
2022-11-06T03:10:38.810Z,7.90
2022-11-06T03:13:18.337Z,7.57
2022-11-06T03:15:51.052Z,8.80
2022-11-06T03:18:34.815Z,10.77
2022-11-06T03:21:10.798Z,24.60
2022-11-06T03:23:45.187Z,8.90
2022-11-06T03:26:19.058Z,10.03
2022-11-06T03:28:53.203Z,7.27
2022-11-06T03:31:30.015Z,8.50
2022-11-06T03:34:02.497Z,6.57
2022-11-06T03:36:41.979Z,7.67
2022-11-06T03:39:14.644Z,7.03
2022-11-06T03:41:50.742Z,7.03
2022-11-06T03:44:23.993Z,8.73
2022-11-06T03:47:00.401Z,7.77
2022-11-06T03:49:33.403Z,7.70
2022-11-06T03:52:06.555Z,8.67
2022-11-06T03:54:40.832Z,8.83
2022-11-06T03:57:17.540Z,10.75
2022-11-06T03:59:48.710Z,10.53
2022-11-06T04:02:17.739Z,10.63
2022-11-06T04:04:52.532Z,8.87
2022-11-06T04:07:26.560Z,9.82
2022-11-06T04:10:17.880Z,44.53
2022-11-06T04:13:05.302Z,18.93
2022-11-06T04:15:38.648Z,6.27
2022-11-06T04:18:14.134Z,6.27
2022-11-06T04:21:26.047Z,7.37
2022-11-06T04:24:39.148Z,7.80
2022-11-06T04:27:36.107Z,6.50
2022-11-06T04:30:13.441Z,7.43
2022-11-06T04:33:07.657Z,3.87
2022-11-06T04:35:42.986Z,3.70
2022-11-06T04:38:09.965Z,4.07
2022-11-06T04:41:14.829Z,3.30
2022-11-06T04:43:53.060Z,7.43
2022-11-06T04:46:29.648Z,3.90
2022-11-06T04:48:57.869Z,6.57
2022-11-06T04:51:37.785Z,2.50
2022-11-06T04:54:07.045Z,3.28
2022-11-06T04:56:37.170Z,5.43
2022-11-06T04:59:06.292Z,5.18
2022-11-06T05:01:33.450Z,2.90
2022-11-06T05:04:00.240Z,2.90
2022-11-06T05:06:30.215Z,2.50
2022-11-06T05:08:59.140Z,2.22
2022-11-06T05:11:25.900Z,2.42
2022-11-06T05:13:52.581Z,2.90
2022-11-06T05:16:19.265Z,2.45
2022-11-06T05:18:45.939Z,2.40
2022-11-06T05:21:31.157Z,2.60
2022-11-06T05:23:57.890Z,2.90
2022-11-06T05:26:24.813Z,3.50
2022-11-06T05:28:51.616Z,3.30
2022-11-06T05:31:18.273Z,6.03
2022-11-06T05:33:44.943Z,6.22
2022-11-06T05:36:11.808Z,4.32
2022-11-06T05:38:38.451Z,5.22
2022-11-06T05:41:05.463Z,3.55
2022-11-06T05:43:32.405Z,2.97
2022-11-06T05:46:00.498Z,3.25
2022-11-06T05:48:28.313Z,3.10
2022-11-06T05:51:01.155Z,3.50
2022-11-06T05:53:28.112Z,3.65
2022-11-06T05:55:54.770Z,3.38
2022-11-06T05:58:21.430Z,3.38
2022-11-06T06:00:48.889Z,3.97
2022-11-06T06:03:15.559Z,3.80
2022-11-06T06:05:42.198Z,3.75
2022-11-06T06:08:08.867Z,3.53
2022-11-06T06:10:35.505Z,3.70
2022-11-06T06:13:02.165Z,3.80
2022-11-06T06:15:28.799Z,3.60
2022-11-06T06:17:57.928Z,3.92
2022-11-06T06:20:24.576Z,3.75
2022-11-06T06:22:58.870Z,4.00
2022-11-06T06:25:26.964Z,3.95
2022-11-06T06:27:54.404Z,7.40
2022-11-06T06:30:22.967Z,5.30
2022-11-06T06:32:50.490Z,4.50
2022-11-06T06:35:17.864Z,4.93
2022-11-06T06:37:52.577Z,3.75
2022-11-06T06:40:19.733Z,5.07
2022-11-06T06:42:46.507Z,10.90
2022-11-06T06:45:13.488Z,13.40
2022-11-06T06:47:40.260Z,27.88
2022-11-06T06:50:08.125Z,16.45
2022-11-06T06:52:35.082Z,39.25
2022-11-06T06:55:01.767Z,21.92
2022-11-06T06:57:28.556Z,6.88
2022-11-06T06:59:55.219Z,9.77
2022-11-06T07:02:22.022Z,15.77
2022-11-06T07:04:48.729Z,26.08
2022-11-06T07:07:15.390Z,10.05
2022-11-06T07:09:42.209Z,8.45
2022-11-06T07:12:09.094Z,7.32
2022-11-06T07:14:35.981Z,28.73
2022-11-06T07:17:02.810Z,17.45
2022-11-06T07:19:29.447Z,12.10
2022-11-06T07:21:56.116Z,14.95
2022-11-06T07:24:22.772Z,15.70
2022-11-06T07:26:49.939Z,9.77
2022-11-06T07:29:16.616Z,24.35
2022-11-06T07:31:43.289Z,12.65
2022-11-06T07:34:10.209Z,12.90
2022-11-06T07:36:36.962Z,11.00
2022-11-06T07:39:03.698Z,19.33
2022-11-06T07:41:30.519Z,14.07
2022-11-06T07:43:57.243Z,12.10
2022-11-06T07:46:23.956Z,11.77
2022-11-06T07:48:50.646Z,14.35
2022-11-06T07:51:17.435Z,15.35
2022-11-06T07:53:44.111Z,14.40
2022-11-06T07:56:11.246Z,13.88
2022-11-06T07:58:38.625Z,14.80
2022-11-06T08:01:05.864Z,15.20
2022-11-06T08:03:32.755Z,15.07
2022-11-06T08:06:02.705Z,15.23
2022-11-06T08:08:29.582Z,13.50
2022-11-06T08:10:56.384Z,13.53
2022-11-06T08:13:23.074Z,13.60
2022-11-06T08:15:49.861Z,14.50
2022-11-06T08:18:16.977Z,15.70
2022-11-06T08:20:43.964Z,15.60
2022-11-06T08:23:13.042Z,15.40
2022-11-06T08:25:40.044Z,13.83
2022-11-06T08:28:06.676Z,13.67
2022-11-06T08:30:33.721Z,14.30
2022-11-06T08:33:02.959Z,16.83
2022-11-06T08:35:29.937Z,15.77
2022-11-06T08:37:56.915Z,14.20
2022-11-06T08:40:28.057Z,14.90
2022-11-06T08:43:05.895Z,13.53
2022-11-06T08:45:36.603Z,13.07
2022-11-06T08:48:04.361Z,12.80
2022-11-06T08:50:32.096Z,12.93
2022-11-06T08:53:01.056Z,12.63
2022-11-06T08:55:27.791Z,13.73
2022-11-06T08:57:55.591Z,14.20
2022-11-06T09:00:22.524Z,14.10
2022-11-06T09:02:49.214Z,13.77
2022-11-06T09:05:16.095Z,14.20
2022-11-06T09:07:42.757Z,13.87
2022-11-06T09:10:09.689Z,15.47
2022-11-06T09:12:36.337Z,13.47
2022-11-06T09:15:03.130Z,14.80
2022-11-06T09:17:29.873Z,13.27
2022-11-06T09:19:56.505Z,13.50
2022-11-06T09:22:23.143Z,12.40
2022-11-06T09:25:03.069Z,13.50
2022-11-06T09:27:31.120Z,12.57
2022-11-06T09:29:57.872Z,12.70
2022-11-06T09:32:25.073Z,12.73
2022-11-06T09:34:52.072Z,12.00
2022-11-06T09:37:18.801Z,12.30
2022-11-06T09:39:45.484Z,11.50
2022-11-06T09:42:50.514Z,10.80
2022-11-06T09:45:23.533Z,9.60
2022-11-06T09:47:57.390Z,9.30
2022-11-06T09:50:28.753Z,9.93
2022-11-06T09:53:05.737Z,9.93
2022-11-06T09:55:42.140Z,9.50
2022-11-06T09:58:33.629Z,8.77
2022-11-06T10:01:19.584Z,8.30
2022-11-06T10:03:58.991Z,8.13
2022-11-06T10:06:27.587Z,8.47
2022-11-06T10:08:59.949Z,8.37
2022-11-06T10:11:43.710Z,9.07
2022-11-06T10:14:19.244Z,8.03
2022-11-06T10:16:56.093Z,7.83
2022-11-06T10:19:35.199Z,7.83
2022-11-06T10:22:08.026Z,8.80
2022-11-06T10:25:08.820Z,7.90
2022-11-06T10:27:46.987Z,7.50
2022-11-06T10:30:15.635Z,7.17
2022-11-06T10:33:09.551Z,7.07
2022-11-06T10:35:43.851Z,6.77
2022-11-06T10:38:26.108Z,7.50
2022-11-06T10:40:55.035Z,6.50
2022-11-06T10:43:54.975Z,6.60
2022-11-06T10:46:29.868Z,5.83
2022-11-06T10:49:01.864Z,5.63
2022-11-06T10:51:37.680Z,5.50
2022-11-06T10:54:19.448Z,4.10
2022-11-06T10:56:54.890Z,4.40
2022-11-06T10:59:21.766Z,5.20
2022-11-06T11:01:49.437Z,4.13
2022-11-06T11:04:16.237Z,3.90
2022-11-06T11:06:42.883Z,3.07
2022-11-06T11:09:27.639Z,3.67
2022-11-06T11:11:54.433Z,3.70
2022-11-06T11:14:31.492Z,3.70
2022-11-06T11:17:07.639Z,2.30
2022-11-06T11:19:42.015Z,2.83
2022-11-06T11:22:20.363Z,2.60
2022-11-06T11:25:09.003Z,2.73
2022-11-06T11:27:43.151Z,2.93
2022-11-06T11:30:29.643Z,2.87
2022-11-06T11:32:57.618Z,2.90
2022-11-06T11:35:31.175Z,3.50
2022-11-06T11:38:12.452Z,3.07
2022-11-06T11:40:40.212Z,2.30
2022-11-06T11:43:15.981Z,2.87
2022-11-06T11:45:42.987Z,2.57
2022-11-06T11:48:14.427Z,2.80
2022-11-06T11:50:41.428Z,2.87
2022-11-06T11:53:14.042Z,3.27
2022-11-06T11:55:45.197Z,3.17
2022-11-06T11:58:25.903Z,3.30
2022-11-06T12:01:01.417Z,3.83
2022-11-06T12:03:35.419Z,3.40
2022-11-06T12:06:11.334Z,3.13
2022-11-06T12:08:40.600Z,3.67
2022-11-06T12:11:07.581Z,3.70
2022-11-06T12:13:34.269Z,3.27
2022-11-06T12:16:16.969Z,3.10
2022-11-06T12:18:54.656Z,3.20
2022-11-06T12:21:29.979Z,2.90
2022-11-06T12:24:18.212Z,3.17
2022-11-06T12:26:54.098Z,4.00
2022-11-06T12:29:34.522Z,3.37
2022-11-06T12:32:11.042Z,3.37
2022-11-06T12:34:48.394Z,2.63
2022-11-06T12:37:17.774Z,2.83
2022-11-06T12:39:52.451Z,2.83
2022-11-06T12:42:22.501Z,2.90
2022-11-06T12:44:49.239Z,2.80
2022-11-06T12:47:42.536Z,3.40
2022-11-06T12:50:24.814Z,3.77
2022-11-06T12:53:06.285Z,2.87
2022-11-06T12:55:42.961Z,3.23
2022-11-06T12:58:18.293Z,3.00
2022-11-06T13:01:07.715Z,3.40
2022-11-06T13:03:40.352Z,6.63
2022-11-06T13:06:45.641Z,2.90
2022-11-06T13:09:23.599Z,2.47
2022-11-06T13:12:16.591Z,3.43
2022-11-06T13:15:06.463Z,2.67
2022-11-06T13:17:57.914Z,3.00
2022-11-06T13:20:49.832Z,2.80
2022-11-06T13:23:29.336Z,3.20
2022-11-06T13:26:11.067Z,2.50
2022-11-06T13:28:45.386Z,2.27
2022-11-06T13:31:14.809Z,8.20
2022-11-06T13:33:53.320Z,5.27
2022-11-06T13:36:20.714Z,11.70
2022-11-06T13:39:00.012Z,6.63
2022-11-06T13:41:31.639Z,2.60
2022-11-06T13:44:04.304Z,3.30
2022-11-06T13:46:54.177Z,2.60
2022-11-06T13:49:44.257Z,2.70
2022-11-06T13:52:18.751Z,3.20
2022-11-06T13:55:19.894Z,3.00
2022-11-06T13:57:55.934Z,2.67
2022-11-06T14:00:41.451Z,3.07
2022-11-06T14:03:28.191Z,3.23
2022-11-06T14:06:15.523Z,2.83
2022-11-06T14:08:47.487Z,3.10
2022-11-06T14:11:16.611Z,3.03
2022-11-06T14:14:00.693Z,3.93
2022-11-06T14:16:37.477Z,4.50
2022-11-06T14:19:11.496Z,3.13
2022-11-06T14:21:53.943Z,3.20
2022-11-06T14:24:36.876Z,4.10
2022-11-06T14:27:09.046Z,5.90
2022-11-06T14:29:35.660Z,8.87
2022-11-06T14:32:12.080Z,10.27
2022-11-06T14:34:41.153Z,7.20
2022-11-06T14:37:20.168Z,3.10
2022-11-06T14:39:56.100Z,4.40
2022-11-06T14:42:40.044Z,5.50
2022-11-06T14:45:17.566Z,9.43
2022-11-06T14:47:49.897Z,3.43
2022-11-06T14:50:20.025Z,5.50
2022-11-06T14:53:00.429Z,3.20
2022-11-06T14:55:42.370Z,2.77
2022-11-06T14:58:17.785Z,3.07
2022-11-06T15:00:49.224Z,7.63
2022-11-06T15:03:55.159Z,9.80
2022-11-06T15:06:33.719Z,3.13
2022-11-06T15:09:23.460Z,2.63
2022-11-06T15:11:55.018Z,4.97
2022-11-06T15:14:21.642Z,4.23
2022-11-06T15:17:00.359Z,5.43
2022-11-06T15:19:38.503Z,3.80
2022-11-06T15:22:26.296Z,5.50
2022-11-06T15:25:00.427Z,4.30
2022-11-06T15:27:42.861Z,7.67
2022-11-06T15:30:16.027Z,5.67
2022-11-06T15:32:45.904Z,3.80
2022-11-06T15:35:17.096Z,8.90
2022-11-06T15:38:10.599Z,11.73
2022-11-06T15:40:39.544Z,7.67
2022-11-06T15:43:25.581Z,6.67
2022-11-06T15:46:07.291Z,7.10
2022-11-06T15:48:34.931Z,9.07
2022-11-06T15:51:02.229Z,7.67
2022-11-06T15:53:30.337Z,5.80
2022-11-06T15:56:08.584Z,4.90
2022-11-06T15:58:37.233Z,4.97
2022-11-06T16:01:06.792Z,4.47
2022-11-06T16:03:52.289Z,4.40
2022-11-06T16:06:19.139Z,3.97
2022-11-06T16:08:46.887Z,3.67
2022-11-06T16:11:19.397Z,3.83
2022-11-06T16:13:46.738Z,4.40
2022-11-06T16:16:28.714Z,3.50
2022-11-06T16:18:55.415Z,4.73
2022-11-06T16:21:27.297Z,4.20
2022-11-06T16:24:09.799Z,6.00
2022-11-06T16:26:48.534Z,4.40
2022-11-06T16:29:26.632Z,4.20
2022-11-06T16:32:00.417Z,6.17
2022-11-06T16:34:41.865Z,4.57
2022-11-06T16:37:29.652Z,5.50
2022-11-06T16:39:59.460Z,4.63
2022-11-06T16:42:30.298Z,5.40
2022-11-06T16:45:17.771Z,5.40
2022-11-06T16:48:06.964Z,4.27
2022-11-06T16:50:46.367Z,5.40
2022-11-06T16:53:19.677Z,4.97
2022-11-06T16:55:58.223Z,7.83
2022-11-06T16:58:26.229Z,10.37
2022-11-06T17:01:02.325Z,7.77
2022-11-06T17:03:45.866Z,7.13
2022-11-06T17:06:25.282Z,6.60
2022-11-06T17:09:23.063Z,6.13
2022-11-06T17:11:54.304Z,12.67
2022-11-06T17:14:21.839Z,10.00
2022-11-06T17:16:54.950Z,9.00
2022-11-06T17:19:22.442Z,13.53
2022-11-06T17:21:50.194Z,14.53
2022-11-06T17:24:35.860Z,12.23
2022-11-06T17:27:03.001Z,15.70
2022-11-06T17:29:29.683Z,12.10
2022-11-06T17:31:56.686Z,9.13
2022-11-06T17:34:23.350Z,7.73
2022-11-06T17:36:50.035Z,10.97
2022-11-06T17:39:16.683Z,13.70
2022-11-06T17:41:43.410Z,15.27
2022-11-06T17:44:15.464Z,16.80
2022-11-06T17:46:44.895Z,10.13
2022-11-06T17:49:17.175Z,13.90
2022-11-06T17:51:59.770Z,18.33
2022-11-06T17:54:32.288Z,11.70
2022-11-06T17:57:02.008Z,13.23
2022-11-06T17:59:28.852Z,9.77
2022-11-06T18:01:55.729Z,8.90
2022-11-06T18:04:24.549Z,9.00
2022-11-06T18:06:52.761Z,8.03
2022-11-06T18:09:21.157Z,8.63
2022-11-06T18:11:52.610Z,9.20
2022-11-06T18:14:20.193Z,7.97
2022-11-06T18:16:47.685Z,7.10
2022-11-06T18:19:20.263Z,6.43
2022-11-06T18:21:47.784Z,8.10
2022-11-06T18:24:14.990Z,10.90
2022-11-06T18:26:41.740Z,12.20
2022-11-06T18:29:10.960Z,13.57
2022-11-06T18:31:37.627Z,13.17
2022-11-06T18:34:05.317Z,11.57
2022-11-06T18:36:33.119Z,12.40
2022-11-06T18:38:59.755Z,9.80
2022-11-06T18:41:26.546Z,16.30
2022-11-06T18:44:00.116Z,12.60
2022-11-06T18:46:27.852Z,13.23
2022-11-06T18:48:58.133Z,13.53
2022-11-06T18:51:37.596Z,12.70
2022-11-06T18:54:07.082Z,15.43
2022-11-06T18:56:35.964Z,17.30
2022-11-06T18:59:03.680Z,20.47
2022-11-06T19:01:30.531Z,19.60
2022-11-06T19:03:57.288Z,16.90
2022-11-06T19:06:24.176Z,16.60
2022-11-06T19:08:51.050Z,19.43
2022-11-06T19:11:20.221Z,13.83
2022-11-06T19:13:48.664Z,10.80
2022-11-06T19:16:18.512Z,8.83
2022-11-06T19:18:45.564Z,9.77
2022-11-06T19:21:12.332Z,8.30
2022-11-06T19:23:41.320Z,7.50
2022-11-06T19:26:30.149Z,7.93
2022-11-06T19:28:57.962Z,7.70
2022-11-06T19:31:28.992Z,7.43
2022-11-06T19:33:57.439Z,6.60
2022-11-06T19:36:25.223Z,7.67
2022-11-06T19:38:52.359Z,7.57
2022-11-06T19:41:19.257Z,18.70
2022-11-06T19:43:45.996Z,9.43
2022-11-06T19:46:12.674Z,7.30
2022-11-06T19:48:39.430Z,6.80
2022-11-06T19:51:11.399Z,6.23
2022-11-06T19:53:38.832Z,9.70
2022-11-06T19:56:08.290Z,10.07
2022-11-06T19:58:35.787Z,7.93
2022-11-06T20:01:13.227Z,6.80
2022-11-06T20:03:40.359Z,7.17
2022-11-06T20:06:08.361Z,5.50
2022-11-06T20:08:36.944Z,4.67
2022-11-06T20:11:14.197Z,4.47
2022-11-06T20:13:42.381Z,4.17
2022-11-06T20:16:14.897Z,4.40
2022-11-06T20:18:41.965Z,3.70
2022-11-06T20:21:11.261Z,4.10
2022-11-06T20:23:38.472Z,4.13
2022-11-06T20:26:06.145Z,3.97
2022-11-06T20:28:33.689Z,3.87
2022-11-06T20:31:04.030Z,3.70
2022-11-06T20:33:30.681Z,3.50
2022-11-06T20:35:57.410Z,4.20
2022-11-06T20:38:25.774Z,3.73
2022-11-06T20:40:56.935Z,3.93
2022-11-06T20:43:23.658Z,3.30
2022-11-06T20:45:50.311Z,3.63
2022-11-06T20:48:16.927Z,3.30
2022-11-06T20:50:43.600Z,3.40
2022-11-06T20:53:10.252Z,3.40
2022-11-06T20:55:36.991Z,3.37
2022-11-06T20:58:03.702Z,3.77
2022-11-06T21:00:30.389Z,4.17
2022-11-06T21:03:01.560Z,4.10
2022-11-06T21:05:28.729Z,4.67
2022-11-06T21:07:55.396Z,3.77
2022-11-06T21:10:22.161Z,4.30
2022-11-06T21:12:48.979Z,4.40
2022-11-06T21:15:16.701Z,5.60
2022-11-06T21:17:43.616Z,4.83
2022-11-06T21:20:11.003Z,3.90
2022-11-06T21:22:37.824Z,4.20
2022-11-06T21:25:04.746Z,5.60
2022-11-06T21:27:31.473Z,4.47
2022-11-06T21:29:58.256Z,3.90
2022-11-06T21:32:24.977Z,4.30
2022-11-06T21:34:51.630Z,3.83
2022-11-06T21:37:18.299Z,3.70
2022-11-06T21:39:45.003Z,3.50
2022-11-06T21:42:11.673Z,3.43
2022-11-06T21:44:38.338Z,6.03
2022-11-06T21:47:05.029Z,4.03
2022-11-06T21:49:31.678Z,4.10
2022-11-06T21:52:18.341Z,3.00
2022-11-06T21:55:03.917Z,2.97
2022-11-06T21:57:30.560Z,2.93
2022-11-06T21:59:57.225Z,2.40
2022-11-06T22:02:24.026Z,2.80
2022-11-06T22:04:50.832Z,2.30
2022-11-06T22:07:17.522Z,3.10
2022-11-06T22:09:44.188Z,2.30
2022-11-06T22:12:10.860Z,2.20
2022-11-06T22:14:37.516Z,2.80
2022-11-06T22:17:04.159Z,1.93
2022-11-06T22:19:30.772Z,2.40
2022-11-06T22:21:57.442Z,2.00
2022-11-06T22:24:24.104Z,1.90
2022-11-06T22:26:54.227Z,2.60
2022-11-06T22:29:20.916Z,2.07
2022-11-06T22:31:47.641Z,1.43
2022-11-06T22:34:14.508Z,1.80
2022-11-06T22:36:41.626Z,1.50
2022-11-06T22:39:09.897Z,1.33
2022-11-06T22:41:37.305Z,1.60
2022-11-06T22:44:05.240Z,1.13
2022-11-06T22:46:32.272Z,0.87
2022-11-06T22:48:59.310Z,1.23
2022-11-06T22:51:29.589Z,1.20
2022-11-06T22:53:57.998Z,1.33
2022-11-06T22:56:26.388Z,1.10
2022-11-06T22:59:01.814Z,1.63
2022-11-06T23:01:30.463Z,1.00
2022-11-06T23:04:01.894Z,1.33
2022-11-06T23:06:28.589Z,1.30
2022-11-06T23:08:55.253Z,1.17
2022-11-06T23:11:23.815Z,1.17
2022-11-06T23:13:50.853Z,1.93
2022-11-06T23:16:39.771Z,1.27
2022-11-06T23:19:07.109Z,1.60
2022-11-06T23:21:33.842Z,1.00
2022-11-06T23:24:00.590Z,2.33
2022-11-06T23:26:27.247Z,1.00
2022-11-06T23:28:55.416Z,0.93
2022-11-06T23:31:22.676Z,2.10
2022-11-06T23:33:49.958Z,2.33
2022-11-06T23:36:18.088Z,1.20
2022-11-06T23:38:45.253Z,0.90
2022-11-06T23:41:35.476Z,1.00
2022-11-06T23:44:03.093Z,1.10
2022-11-06T23:46:32.178Z,1.20
2022-11-06T23:48:59.040Z,1.00
2022-11-06T23:51:26.599Z,1.20
2022-11-06T23:53:54.551Z,1.17
2022-11-06T23:56:21.246Z,0.80
2022-11-06T23:58:47.918Z,1.23
